Time;durP1;ratioP1;P1;durP2;ratioP2;P2;SDS_P1;SDS_P2;PMS_P1;PMS_P2;Temp;Humidity;BMP_temperature;BMP_pressure;BME280_temperature;BME280_humidity;BME280_pressure;Samples;Min_cycle;Max_cycle;Signal;HPM_P1;HPM_P2
2022/05/19 00:02:10;;;;;;;2.87;2.63;;;23.10;61.60;;;;;;4944458;29;20482;-60
2022/05/19 00:04:36;;;;;;;3.20;2.90;;;23.10;61.70;;;;;;4936519;29;20133;-60
2022/05/19 00:07:02;;;;;;;3.25;2.85;;;23.10;61.70;;;;;;4945422;28;20109;-63
2022/05/19 00:09:28;;;;;;;3.55;2.92;;;23.10;61.60;;;;;;4945600;28;20395;-60
2022/05/19 00:11:56;;;;;;;3.50;2.70;;;23.10;62.30;;;;;;4944225;29;20036;-60
2022/05/19 00:14:22;;;;;;;3.53;2.70;;;23.10;61.60;;;;;;4945077;29;20410;-59
2022/05/19 00:16:48;;;;;;;4.63;2.97;;;23.10;61.60;;;;;;4944722;29;20043;-60
2022/05/19 00:19:14;;;;;;;3.65;2.83;;;23.10;61.60;;;;;;4944536;29;20082;-61
2022/05/19 00:21:42;;;;;;;3.55;3.10;;;23.10;61.50;;;;;;4943379;28;20046;-61
2022/05/19 00:24:08;;;;;;;2.90;2.60;;;23.10;61.50;;;;;;4947862;28;20043;-58
2022/05/19 00:26:34;;;;;;;3.08;2.50;;;23.10;61.50;;;;;;4948103;28;20412;-58
2022/05/19 00:28:59;;;;;;;3.00;2.80;;;23.10;61.50;;;;;;4948728;28;20050;-62
2022/05/19 00:31:26;;;;;;;3.13;2.60;;;23.10;61.50;;;;;;4947286;29;20043;-60
2022/05/19 00:33:52;;;;;;;3.00;2.80;;;23.10;61.40;;;;;;4948233;28;20053;-59
2022/05/19 00:36:19;;;;;;;3.33;2.67;;;23.10;61.40;;;;;;4946904;28;20077;-62
2022/05/19 00:38:46;;;;;;;2.70;2.30;;;23.10;61.40;;;;;;4947448;29;20043;-58
2022/05/19 00:41:13;;;;;;;3.50;2.80;;;23.10;61.40;;;;;;4947122;29;20363;-64
2022/05/19 00:43:42;;;;;;;3.10;2.80;;;23.10;61.40;;;;;;4947433;28;20050;-58
2022/05/19 00:46:18;;;;;;;3.35;2.95;;;23.10;61.40;;;;;;4930216;29;20050;-61
2022/05/19 00:48:53;;;;;;;2.90;2.60;;;23.10;61.40;;;;;;4947381;28;20416;-59
2022/05/19 00:51:23;;;;;;;3.38;3.00;;;23.10;61.40;;;;;;4947931;29;20078;-59
2022/05/19 00:53:54;;;;;;;2.97;2.77;;;23.10;61.40;;;;;;4946686;28;20051;-60
2022/05/19 00:56:23;;;;;;;3.55;3.22;;;23.10;61.30;;;;;;4940431;29;20035;-58
2022/05/19 00:59:09;;;;;;;3.00;2.70;;;23.10;61.30;;;;;;4946516;29;20046;-59
2022/05/19 01:01:38;;;;;;;3.00;2.58;;;23.10;61.30;;;;;;4947913;29;20050;-59
2022/05/19 01:04:27;;;;;;;2.80;2.60;;;23.00;61.20;;;;;;4947002;28;20102;-61
2022/05/19 01:06:58;;;;;;;2.83;2.60;;;23.10;61.30;;;;;;4947604;28;20047;-61
2022/05/19 01:09:24;;;;;;;2.72;2.53;;;23.10;61.30;;;;;;4963628;28;20385;-60
2022/05/19 01:11:55;;;;;;;2.80;2.60;;;23.10;61.30;;;;;;4946595;29;20146;-59
2022/05/19 01:14:21;;;;;;;3.20;2.88;;;23.10;61.30;;;;;;4947492;29;20106;-60
2022/05/19 01:16:47;;;;;;;3.50;2.60;;;23.10;61.30;;;;;;4947312;28;20771;-63
2022/05/19 01:19:52;;;;;;;2.95;2.45;;;23.10;61.20;;;;;;4946245;29;20086;-60
2022/05/19 01:22:36;;;;;;;4.03;2.70;;;23.00;61.00;;;;;;4947719;29;20143;-60
2022/05/19 01:25:40;;;;;;;3.17;2.40;;;23.10;61.30;;;;;;4941295;28;20634;-59
2022/05/19 01:28:06;;;;;;;3.53;2.92;;;23.10;61.10;;;;;;4945316;29;20138;-58
2022/05/19 01:30:32;;;;;;;2.97;2.67;;;23.00;61.10;;;;;;4946561;28;20384;-60
2022/05/19 01:32:58;;;;;;;3.90;2.65;;;23.00;61.10;;;;;;4944994;28;20741;-60
2022/05/19 01:35:24;;;;;;;2.63;2.42;;;23.00;61.10;;;;;;4943855;29;20051;-59
2022/05/19 01:37:50;;;;;;;3.05;2.70;;;23.00;61.10;;;;;;4946307;29;20061;-60
2022/05/19 01:40:18;;;;;;;2.92;2.72;;;23.00;61.00;;;;;;4947267;28;20531;-61
2022/05/19 01:43:04;;;;;;;2.75;2.40;;;23.10;61.10;;;;;;4945383;28;20109;-59
2022/05/19 01:45:47;;;;;;;3.00;2.80;;;23.10;61.10;;;;;;4946779;28;20083;-59
2022/05/19 01:48:23;;;;;;;3.00;2.80;;;23.00;61.00;;;;;;4961353;28;20182;-59
2022/05/19 01:51:13;;;;;;;3.08;2.78;;;23.00;61.00;;;;;;4961027;28;20087;-58
2022/05/19 01:53:53;;;;;;;2.53;2.33;;;23.00;60.90;;;;;;4946296;29;20584;-60
2022/05/19 01:56:41;;;;;;;2.70;2.50;;;23.00;61.00;;;;;;4947653;29;20489;-61
2022/05/19 01:59:17;;;;;;;2.80;2.60;;;23.00;60.90;;;;;;4945018;29;20094;-58
2022/05/19 02:01:51;;;;;;;3.25;2.45;;;23.00;60.90;;;;;;4938133;28;20046;-59
2022/05/19 02:04:27;;;;;;;3.08;2.78;;;23.00;60.90;;;;;;4941940;28;20075;-60
2022/05/19 02:06:59;;;;;;;2.42;2.22;;;23.00;60.90;;;;;;4943149;29;20051;-59
2022/05/19 02:09:34;;;;;;;3.28;2.83;;;23.00;60.90;;;;;;4941229;29;20403;-58
2022/05/19 02:12:01;;;;;;;3.35;2.80;;;23.00;60.80;;;;;;4945469;28;20045;-62
2022/05/19 02:14:39;;;;;;;2.65;2.42;;;23.00;60.80;;;;;;4945203;28;20074;-59
2022/05/19 02:17:09;;;;;;;3.30;2.40;;;23.00;60.90;;;;;;4944335;29;20046;-60
2022/05/19 02:19:45;;;;;;;2.95;2.65;;;23.00;60.80;;;;;;4945226;28;20431;-58
2022/05/19 02:22:16;;;;;;;2.58;2.38;;;23.00;60.80;;;;;;4944530;28;20527;-58
2022/05/19 02:24:45;;;;;;;;;;;23.00;60.80;;;;;;4946019;29;20082;-60
2022/05/19 02:27:36;;;;;;;2.50;2.28;;;23.00;60.70;;;;;;4944278;29;20407;-59
2022/05/19 02:30:05;;;;;;;2.58;2.45;;;23.00;60.80;;;;;;4945034;29;20039;-60
2022/05/19 02:32:31;;;;;;;2.63;2.42;;;23.00;60.80;;;;;;4944832;29;20527;-60
2022/05/19 02:34:56;;;;;;;3.33;2.63;;;23.00;60.80;;;;;;4945268;28;20079;-60
2022/05/19 02:37:22;;;;;;;2.88;2.67;;;23.00;60.70;;;;;;4946320;29;20437;-62
2022/05/19 02:39:48;;;;;;;3.00;2.63;;;23.00;60.70;;;;;;4945578;29;20490;-59
2022/05/19 02:42:14;;;;;;;2.78;2.58;;;23.00;60.70;;;;;;4945099;28;20057;-59
2022/05/19 02:44:39;;;;;;;2.42;2.22;;;23.00;60.60;;;;;;4944744;28;20496;-58
2022/05/19 02:47:05;;;;;;;3.33;2.53;;;23.00;60.60;;;;;;4945793;29;20051;-59
2022/05/19 02:49:31;;;;;;;2.78;2.58;;;23.00;60.50;;;;;;4940934;28;20031;-60
2022/05/19 02:51:56;;;;;;;3.60;2.67;;;23.00;60.50;;;;;;4945732;29;20042;-58
2022/05/19 02:54:22;;;;;;;3.03;2.80;;;23.00;60.60;;;;;;4945289;28;20836;-58
2022/05/19 02:56:48;;;;;;;3.88;2.72;;;23.00;60.60;;;;;;4943358;29;20467;-59
2022/05/19 02:59:14;;;;;;;2.65;2.40;;;23.00;60.50;;;;;;4946002;29;20050;-62
2022/05/19 03:01:39;;;;;;;2.30;2.20;;;23.00;60.50;;;;;;4945526;28;20047;-60
2022/05/19 03:04:05;;;;;;;2.60;2.40;;;23.00;60.50;;;;;;4938100;29;20522;-59
2022/05/19 03:06:30;;;;;;;2.95;2.65;;;23.00;60.50;;;;;;4945124;28;20043;-60
2022/05/19 03:08:56;;;;;;;2.80;2.60;;;23.00;60.40;;;;;;4945333;29;20054;-60
2022/05/19 03:11:21;;;;;;;2.67;2.47;;;23.00;60.50;;;;;;4945035;28;20035;-63
2022/05/19 03:13:47;;;;;;;2.83;2.63;;;23.00;60.40;;;;;;4944537;28;20401;-59
2022/05/19 03:16:12;;;;;;;2.90;2.65;;;23.00;60.40;;;;;;4945209;28;20035;-60
2022/05/19 03:18:38;;;;;;;2.35;2.15;;;23.00;60.40;;;;;;4945201;29;20399;-59
2022/05/19 03:21:03;;;;;;;2.72;2.53;;;23.00;60.30;;;;;;4943208;29;21606;-59
2022/05/19 03:23:29;;;;;;;2.85;2.50;;;23.00;60.40;;;;;;4945273;29;20101;-60
2022/05/19 03:25:55;;;;;;;2.50;2.30;;;23.00;60.30;;;;;;4942620;29;20047;-58
2022/05/19 03:28:20;;;;;;;2.80;2.42;;;23.00;60.40;;;;;;4945662;28;20038;-58
2022/05/19 03:30:46;;;;;;;2.53;2.33;;;23.00;60.30;;;;;;4945234;29;20074;-59
2022/05/19 03:33:12;;;;;;;2.72;2.53;;;23.00;60.30;;;;;;4946312;29;20050;-60
2022/05/19 03:35:38;;;;;;;3.00;2.60;;;23.00;60.30;;;;;;4944697;28;20054;-58
2022/05/19 03:38:04;;;;;;;2.95;2.60;;;23.00;60.30;;;;;;4945204;29;20051;-61
2022/05/19 03:40:29;;;;;;;2.75;2.55;;;23.00;60.20;;;;;;4942569;29;20028;-62
2022/05/19 03:42:55;;;;;;;2.63;2.42;;;23.00;60.20;;;;;;4944827;29;20031;-58
2022/05/19 03:45:20;;;;;;;2.92;2.72;;;23.00;60.20;;;;;;4945766;28;20459;-60
2022/05/19 03:47:46;;;;;;;3.10;2.72;;;23.00;60.20;;;;;;4944605;29;20050;-60
2022/05/19 03:50:12;;;;;;;2.60;2.40;;;23.00;60.20;;;;;;4946231;29;20532;-62
2022/05/19 03:52:40;;;;;;;3.00;2.80;;;23.00;60.20;;;;;;4944191;28;20044;-59
2022/05/19 03:55:06;;;;;;;2.90;2.50;;;23.00;60.10;;;;;;4945144;29;20039;-60
2022/05/19 03:57:32;;;;;;;2.70;2.50;;;22.90;60.10;;;;;;4944117;28;20058;-60
2022/05/19 03:59:57;;;;;;;2.90;2.63;;;23.00;60.20;;;;;;4948489;28;20066;-59
2022/05/19 04:02:23;;;;;;;2.70;2.50;;;22.90;60.10;;;;;;4944676;28;20488;-60
2022/05/19 04:04:49;;;;;;;4.00;2.90;;;23.00;60.10;;;;;;4945504;28;20043;-59
2022/05/19 04:07:15;;;;;;;3.00;2.80;;;22.90;60.10;;;;;;4953548;28;20039;-61
2022/05/19 04:09:41;;;;;;;3.22;2.92;;;23.00;60.00;;;;;;4945063;29;20035;-59
2022/05/19 04:12:07;;;;;;;2.30;2.20;;;22.90;60.10;;;;;;4947944;29;20097;-59
2022/05/19 04:14:34;;;;;;;3.22;2.92;;;23.00;60.00;;;;;;4947631;28;20099;-59
2022/05/19 04:17:00;;;;;;;3.58;3.28;;;22.90;60.00;;;;;;4948753;29;20062;-61
2022/05/19 04:19:25;;;;;;;3.00;2.50;;;23.00;60.00;;;;;;4947225;28;20047;-59
2022/05/19 04:21:51;;;;;;;3.03;2.78;;;23.00;60.10;;;;;;4953162;28;20039;-58
2022/05/19 04:24:16;;;;;;;3.30;2.78;;;23.00;60.10;;;;;;4948037;28;20487;-61
2022/05/19 04:26:42;;;;;;;3.35;3.05;;;23.00;60.00;;;;;;4948199;28;20059;-59
2022/05/19 04:29:08;;;;;;;3.90;3.20;;;23.00;60.00;;;;;;4949574;28;20341;-58
2022/05/19 04:31:33;;;;;;;3.40;3.10;;;23.00;60.00;;;;;;4962675;28;20035;-62
2022/05/19 04:33:59;;;;;;;3.13;2.63;;;23.00;60.00;;;;;;4947985;28;20062;-59
2022/05/19 04:36:24;;;;;;;3.60;3.30;;;23.00;60.00;;;;;;4946357;29;20502;-60
2022/05/19 04:38:50;;;;;;;3.70;3.40;;;23.00;60.00;;;;;;4948761;29;20059;-59
2022/05/19 04:41:16;;;;;;;3.95;3.65;;;23.00;60.10;;;;;;4945967;29;20154;-60
2022/05/19 04:43:41;;;;;;;4.00;3.42;;;23.00;60.10;;;;;;4947567;29;20429;-59
2022/05/19 04:46:07;;;;;;;4.03;3.72;;;22.90;60.10;;;;;;4947383;29;20047;-63
2022/05/19 04:48:32;;;;;;;4.32;3.92;;;23.00;60.10;;;;;;4945101;29;20098;-60
2022/05/19 04:50:59;;;;;;;4.40;4.00;;;23.00;60.10;;;;;;4946160;29;20059;-60
2022/05/19 04:53:25;;;;;;;4.88;4.35;;;22.90;60.00;;;;;;4945950;28;20059;-60
2022/05/19 04:55:52;;;;;;;8.05;5.13;;;23.00;60.30;;;;;;4945263;29;20561;-59
2022/05/19 04:58:18;;;;;;;5.97;5.18;;;22.90;60.50;;;;;;4945504;29;20077;-60
2022/05/19 05:00:45;;;;;;;7.20;5.13;;;23.00;60.60;;;;;;4945851;29;20050;-61
2022/05/19 05:03:11;;;;;;;7.32;4.80;;;22.90;60.60;;;;;;4944897;29;20039;-59
2022/05/19 05:05:36;;;;;;;5.97;5.30;;;22.90;60.60;;;;;;4945736;28;20065;-60
2022/05/19 05:08:02;;;;;;;5.35;4.85;;;22.90;60.60;;;;;;4944762;28;20475;-60
2022/05/19 05:10:28;;;;;;;5.18;4.47;;;22.90;60.40;;;;;;4944429;28;20047;-60
2022/05/19 05:12:54;;;;;;;5.45;4.95;;;22.90;60.30;;;;;;4946301;29;20039;-60
2022/05/19 05:15:19;;;;;;;5.63;5.07;;;22.90;60.30;;;;;;4945886;28;20542;-60
2022/05/19 05:17:45;;;;;;;5.25;4.75;;;23.00;60.30;;;;;;4945524;28;20039;-60
2022/05/19 05:20:12;;;;;;;4.97;4.47;;;23.00;60.30;;;;;;4945430;28;20035;-62
2022/05/19 05:22:38;;;;;;;5.10;4.63;;;22.90;60.40;;;;;;4947156;28;20042;-59
2022/05/19 05:25:07;;;;;;;5.00;4.53;;;22.90;60.40;;;;;;4948989;29;20159;-63
2022/05/19 05:27:33;;;;;;;5.50;5.00;;;22.90;60.30;;;;;;4947342;29;20043;-63
2022/05/19 05:29:58;;;;;;;5.25;4.68;;;22.90;60.20;;;;;;4948681;29;20090;-61
2022/05/19 05:32:24;;;;;;;5.10;4.70;;;22.90;60.20;;;;;;4947552;28;20507;-61
2022/05/19 05:34:49;;;;;;;5.93;5.32;;;22.90;60.20;;;;;;4947098;28;20106;-59
2022/05/19 05:37:15;;;;;;;6.15;5.65;;;22.90;60.20;;;;;;4946567;29;20459;-62
2022/05/19 05:39:40;;;;;;;9.13;5.85;;;22.90;60.30;;;;;;4947750;28;20043;-60
2022/05/19 05:42:06;;;;;;;6.00;5.50;;;22.90;60.30;;;;;;4947137;29;20039;-59
2022/05/19 05:44:32;;;;;;;6.15;5.65;;;22.90;60.20;;;;;;4947032;28;20094;-60
2022/05/19 05:46:58;;;;;;;10.23;9.23;;;22.90;60.20;;;;;;4947418;28;20043;-61
2022/05/19 05:49:23;;;;;;;11.48;9.00;;;22.90;60.30;;;;;;4942757;29;20445;-63
2022/05/19 05:51:49;;;;;;;9.40;8.38;;;22.90;60.40;;;;;;4943928;28;20459;-62
2022/05/19 05:54:15;;;;;;;9.80;8.80;;;22.80;60.60;;;;;;4943858;29;20054;-60
2022/05/19 05:56:41;;;;;;;11.15;8.23;;;22.80;60.60;;;;;;4944410;28;20114;-63
2022/05/19 05:59:07;;;;;;;7.80;7.10;;;22.70;60.60;;;;;;4942812;29;20776;-60
2022/05/19 06:01:32;;;;;;;7.43;6.60;;;22.70;60.50;;;;;;4943974;29;20494;-60
2022/05/19 06:03:58;;;;;;;6.13;5.57;;;22.70;60.60;;;;;;4943348;28;20090;-64
2022/05/19 06:06:25;;;;;;;6.78;6.07;;;22.60;60.50;;;;;;4944696;29;20053;-64
2022/05/19 06:08:51;;;;;;;5.95;4.80;;;22.60;60.80;;;;;;4944729;28;20161;-60
2022/05/19 06:11:17;;;;;;;6.72;4.15;;;22.60;60.40;;;;;;4941893;29;20043;-62
2022/05/19 06:13:43;;;;;;;4.20;3.80;;;22.60;60.50;;;;;;4945046;28;20101;-62
2022/05/19 06:16:08;;;;;;;4.72;4.00;;;22.60;60.40;;;;;;4943612;29;20744;-60
2022/05/19 06:18:34;;;;;;;5.85;3.95;;;22.60;60.40;;;;;;4944727;29;20065;-61
2022/05/19 06:20:59;;;;;;;4.28;3.17;;;22.60;60.30;;;;;;4944625;28;20056;-61
2022/05/19 06:23:25;;;;;;;4.13;3.60;;;22.60;60.30;;;;;;4945875;29;20467;-61
2022/05/19 06:25:51;;;;;;;4.05;3.33;;;22.60;60.30;;;;;;4944529;29;20054;-61
2022/05/19 06:28:16;;;;;;;6.72;3.58;;;22.70;60.30;;;;;;4944669;29;20058;-60
2022/05/19 06:30:42;;;;;;;5.28;3.40;;;22.70;60.30;;;;;;4945702;29;20043;-61
2022/05/19 06:33:09;;;;;;;4.95;3.38;;;22.70;60.40;;;;;;4947470;29;20051;-60
2022/05/19 06:35:36;;;;;;;4.65;3.03;;;22.70;60.70;;;;;;4946152;28;20067;-61
2022/05/19 06:38:02;;;;;;;3.28;2.83;;;22.70;60.70;;;;;;4947109;29;20043;-60
2022/05/19 06:40:29;;;;;;;4.10;2.90;;;22.80;60.60;;;;;;4946348;29;20175;-61
2022/05/19 06:42:56;;;;;;;4.03;3.00;;;22.80;60.50;;;;;;4947146;29;20039;-62
2022/05/19 06:45:25;;;;;;;4.30;2.63;;;22.80;60.40;;;;;;4945924;29;20082;-62
2022/05/19 06:47:52;;;;;;;3.42;2.58;;;22.80;60.40;;;;;;4946348;29;20047;-61
2022/05/19 06:50:19;;;;;;;5.63;2.60;;;22.70;60.40;;;;;;4946713;29;20035;-64
2022/05/19 06:52:47;;;;;;;3.78;2.65;;;22.70;60.30;;;;;;4946572;28;22178;-60
2022/05/19 06:55:15;;;;;;;3.60;2.58;;;22.80;60.30;;;;;;4943955;29;20452;-60
2022/05/19 06:57:41;;;;;;;5.25;2.90;;;22.80;60.60;;;;;;4944892;29;20109;-61
2022/05/19 07:00:09;;;;;;;4.10;2.60;;;22.80;60.90;;;;;;4945804;28;20043;-61
2022/05/19 07:02:35;;;;;;;3.03;2.63;;;22.80;61.00;;;;;;4945115;28;20047;-62
2022/05/19 07:05:01;;;;;;;4.63;2.55;;;22.80;61.10;;;;;;4946515;29;20046;-61
2022/05/19 07:07:26;;;;;;;3.60;2.10;;;22.80;61.30;;;;;;4946003;28;20043;-61
2022/05/19 07:09:52;;;;;;;3.50;2.17;;;22.80;61.10;;;;;;4945564;29;20066;-60
2022/05/19 07:12:24;;;;;;;3.33;2.30;;;22.80;60.90;;;;;;4945936;29;20046;-61
2022/05/19 07:14:51;;;;;;;4.80;2.90;;;22.90;61.20;;;;;;4945993;29;20047;-60
2022/05/19 07:17:17;;;;;;;2.67;2.28;;;22.80;61.20;;;;;;4944665;29;20043;-60
2022/05/19 07:22:29;;;;;;;5.10;2.40;;;22.90;61.50;;;;;;4945782;28;20119;-59
2022/05/19 07:24:55;;;;;;;3.67;2.33;;;22.90;61.50;;;;;;4945693;28;20682;-61
2022/05/19 07:27:21;;;;;;;2.67;2.15;;;22.90;61.50;;;;;;4946839;28;20039;-58
2022/05/19 07:29:47;;;;;;;3.80;2.30;;;22.90;61.50;;;;;;4945728;28;20423;-66
2022/05/19 07:32:13;;;;;;;2.28;2.08;;;22.90;61.60;;;;;;4945933;28;20102;-62
2022/05/19 07:34:40;;;;;;;4.32;2.42;;;22.90;61.60;;;;;;4946516;29;20499;-61
2022/05/19 07:37:06;;;;;;;3.83;2.67;;;22.90;61.70;;;;;;4946022;28;20050;-60
2022/05/19 07:39:32;;;;;;;4.13;2.20;;;22.90;61.80;;;;;;4945533;28;20047;-62
2022/05/19 07:42:00;;;;;;;2.50;2.28;;;22.90;61.60;;;;;;4946672;29;20039;-59
2022/05/19 07:44:28;;;;;;;4.10;2.97;;;22.90;62.00;;;;;;4945293;29;20043;-60
2022/05/19 07:46:54;;;;;;;4.05;2.60;;;22.80;62.00;;;;;;4943243;28;20051;-62
2022/05/19 07:49:20;;;;;;;4.97;2.78;;;22.90;62.00;;;;;;4947085;28;20122;-59
2022/05/19 07:51:47;;;;;;;5.68;3.28;;;22.90;62.10;;;;;;4943829;28;20122;-61
2022/05/19 07:54:18;;;;;;;4.82;2.78;;;22.90;62.10;;;;;;4945194;29;20032;-61
2022/05/19 07:56:44;;;;;;;4.03;2.67;;;22.90;62.10;;;;;;4944032;28;20055;-61
2022/05/19 07:59:11;;;;;;;5.03;2.95;;;22.90;62.10;;;;;;4945517;28;20047;-60
2022/05/19 08:01:39;;;;;;;4.45;2.95;;;22.90;62.10;;;;;;4944216;28;20050;-63
2022/05/19 08:04:06;;;;;;;4.35;2.92;;;22.90;62.20;;;;;;4945606;29;20079;-60
2022/05/19 08:06:33;;;;;;;5.95;2.65;;;22.90;62.40;;;;;;4944981;28;20053;-60
2022/05/19 08:08:59;;;;;;;3.13;2.55;;;22.90;62.50;;;;;;4944958;28;20042;-61
2022/05/19 08:11:26;;;;;;;5.13;3.08;;;22.90;62.50;;;;;;4945458;29;20043;-60
2022/05/19 08:16:36;;;;;;;3.35;2.53;;;22.90;62.60;;;;;;4943719;29;20056;-61
2022/05/19 08:19:03;;;;;;;3.70;2.60;;;22.90;62.70;;;;;;4943308;29;20056;-61
2022/05/19 08:21:31;;;;;;;6.50;2.70;;;22.90;63.00;;;;;;4945207;28;20043;-59
2022/05/19 08:23:57;;;;;;;4.03;2.70;;;22.90;63.20;;;;;;4944085;29;20051;-59
2022/05/19 08:26:23;;;;;;;3.75;2.63;;;22.90;63.30;;;;;;4945259;29;20074;-60
2022/05/19 08:28:50;;;;;;;4.75;2.58;;;22.90;63.40;;;;;;4944400;28;20142;-60
2022/05/19 08:31:18;;;;;;;3.35;2.53;;;22.90;63.60;;;;;;4938271;28;20047;-61
2022/05/19 08:33:46;;;;;;;2.63;2.40;;;23.00;63.60;;;;;;4922402;29;20047;-60
2022/05/19 08:36:12;;;;;;;3.42;2.80;;;22.90;63.60;;;;;;4960024;28;20162;-60
2022/05/19 08:38:39;;;;;;;5.20;2.83;;;23.00;63.80;;;;;;4944296;28;20066;-61
2022/05/19 08:41:10;;;;;;;4.68;2.75;;;23.00;63.80;;;;;;4945015;29;20042;-61
2022/05/19 08:44:01;;;;;;;3.22;2.63;;;23.00;63.90;;;;;;4945573;28;20097;-59
2022/05/19 08:46:41;;;;;;;4.85;2.40;;;23.00;63.90;;;;;;4946855;29;20463;-60
2022/05/19 08:49:12;;;;;;;5.50;2.90;;;23.00;64.00;;;;;;4940330;28;20628;-63
2022/05/19 08:52:02;;;;;;;3.70;2.53;;;23.00;64.00;;;;;;4945167;29;20058;-60
2022/05/19 08:54:28;;;;;;;3.63;2.60;;;23.00;64.00;;;;;;4947568;28;20043;-61
2022/05/19 08:57:01;;;;;;;2.38;2.17;;;23.00;64.10;;;;;;4947301;28;20362;-62
2022/05/19 09:00:11;;;;;;;3.78;2.50;;;23.00;64.20;;;;;;4963200;28;20047;-60
2022/05/19 09:03:08;;;;;;;5.35;2.60;;;23.00;64.10;;;;;;4944042;29;20055;-61
2022/05/19 09:06:09;;;;;;;2.83;2.60;;;23.00;64.20;;;;;;4937431;29;20043;-61
2022/05/19 09:08:37;;;;;;;5.88;2.63;;;23.00;64.20;;;;;;4947951;28;20031;-59
2022/05/19 09:11:08;;;;;;;3.65;2.30;;;23.00;64.40;;;;;;4948316;29;20046;-60
2022/05/19 09:13:42;;;;;;;3.13;2.47;;;23.00;64.50;;;;;;4946923;29;20039;-59
2022/05/19 09:16:16;;;;;;;2.97;2.33;;;23.00;64.50;;;;;;4946735;29;20646;-60
2022/05/19 09:18:58;;;;;;;2.75;2.30;;;23.10;64.50;;;;;;4943633;29;20650;-61
2022/05/19 09:21:24;;;;;;;3.13;2.35;;;23.10;64.60;;;;;;4946591;28;20177;-63
2022/05/19 09:23:50;;;;;;;3.17;2.40;;;23.00;64.50;;;;;;4945731;29;20043;-59
2022/05/19 09:26:52;;;;;;;3.03;2.20;;;23.10;64.60;;;;;;4947873;29;20431;-60
2022/05/19 09:29:21;;;;;;;4.07;3.15;;;23.10;64.40;;;;;;4947189;28;20034;-60
2022/05/19 09:31:53;;;;;;;4.82;2.80;;;23.10;64.60;;;;;;4947330;29;20126;-61
2022/05/19 09:34:23;;;;;;;4.85;3.45;;;23.10;65.00;;;;;;4940806;29;20042;-60
2022/05/19 09:37:07;;;;;;;2.75;2.55;;;23.10;65.40;;;;;;4946365;28;20047;-60
2022/05/19 09:39:44;;;;;;;4.05;2.38;;;23.10;65.40;;;;;;4948927;28;20057;-60
2022/05/19 09:42:12;;;;;;;3.30;2.70;;;23.10;65.40;;;;;;4948128;28;20105;-60
2022/05/19 09:44:44;;;;;;;4.05;2.28;;;23.10;65.40;;;;;;4946725;29;20410;-61
2022/05/19 09:47:24;;;;;;;2.97;2.55;;;23.20;65.40;;;;;;4947770;28;20051;-60
2022/05/19 09:50:01;;;;;;;2.63;2.27;;;23.20;65.40;;;;;;4946665;29;20043;-64
2022/05/19 09:52:29;;;;;;;4.80;3.00;;;23.20;65.40;;;;;;4946691;28;20314;-61
2022/05/19 09:54:59;;;;;;;4.22;2.78;;;23.20;65.90;;;;;;4946627;28;20042;-59
2022/05/19 09:57:39;;;;;;;4.27;2.47;;;23.20;65.40;;;;;;4946115;29;20043;-60
2022/05/19 10:00:18;;;;;;;3.63;2.70;;;23.20;65.30;;;;;;4960983;28;20278;-61
2022/05/19 10:02:49;;;;;;;4.35;3.13;;;23.20;65.20;;;;;;4940694;29;20395;-59
2022/05/19 10:05:29;;;;;;;3.08;2.47;;;23.20;65.20;;;;;;4947632;28;20094;-60
2022/05/19 10:07:58;;;;;;;3.40;2.58;;;23.20;65.10;;;;;;4945166;28;20151;-61
2022/05/19 10:10:29;;;;;;;2.65;2.45;;;23.20;65.00;;;;;;4946559;29;20047;-61
2022/05/19 10:13:02;;;;;;;2.80;2.50;;;23.20;64.90;;;;;;4946402;28;20054;-62
2022/05/19 10:15:45;;;;;;;3.22;2.67;;;23.20;64.90;;;;;;4945232;28;20058;-60
2022/05/19 10:18:46;;;;;;;2.70;2.40;;;23.20;65.00;;;;;;4944605;29;20031;-59
2022/05/19 10:21:20;;;;;;;;;;;23.20;64.70;;;;;;4962157;28;20392;-62
2022/05/19 10:23:51;;;;;;;3.38;2.60;;;23.20;64.60;;;;;;4946099;28;19933;-60
2022/05/19 10:26:26;;;;;;;2.75;2.55;;;23.20;64.70;;;;;;4945629;29;20051;-60
2022/05/19 10:32:33;;;;;;;2.55;2.33;;;23.20;64.50;;;;;;4945184;29;20058;-59
2022/05/19 10:35:20;;;;;;;3.33;2.50;;;23.20;64.50;;;;;;4952312;28;20047;-62
2022/05/19 10:38:20;;;;;;;2.55;2.33;;;23.20;64.50;;;;;;4945827;28;20066;-61
2022/05/19 10:41:40;;;;;;;3.87;2.60;;;23.20;64.20;;;;;;4945491;28;20093;-61
2022/05/19 10:44:32;;;;;;;5.82;2.80;;;23.20;64.10;;;;;;4924988;29;20115;-61
2022/05/19 10:47:05;;;;;;;3.80;2.55;;;23.20;64.00;;;;;;4945773;29;20066;-60
2022/05/19 10:49:54;;;;;;;3.58;2.70;;;23.20;63.90;;;;;;4945015;29;20035;-61
2022/05/19 10:52:26;;;;;;;3.03;2.63;;;23.20;63.70;;;;;;4940737;28;20488;-60
2022/05/19 10:55:05;;;;;;;3.00;2.50;;;23.20;63.60;;;;;;4925948;29;20435;-62
2022/05/19 10:58:07;;;;;;;2.80;2.58;;;23.20;63.50;;;;;;4944045;29;20546;-60
2022/05/19 11:00:42;;;;;;;3.13;2.45;;;23.20;63.50;;;;;;4944233;29;20043;-59
2022/05/19 11:03:39;;;;;;;3.63;2.75;;;23.20;63.40;;;;;;4942191;28;20129;-61
2022/05/19 11:06:46;;;;;;;5.07;2.78;;;23.20;63.00;;;;;;4937972;28;20090;-60
2022/05/19 11:09:46;;;;;;;3.90;2.80;;;23.30;62.90;;;;;;4942424;29;20062;-61
2022/05/19 11:12:39;;;;;;;4.32;2.40;;;23.30;62.80;;;;;;4944250;29;20050;-60
2022/05/19 11:15:29;;;;;;;3.80;2.58;;;23.30;62.80;;;;;;4942901;28;20042;-61
2022/05/19 11:18:15;;;;;;;4.78;2.40;;;23.30;62.60;;;;;;4943042;29;20507;-59
2022/05/19 11:21:03;;;;;;;4.78;2.30;;;23.30;62.70;;;;;;4943604;28;20031;-59
2022/05/19 11:23:54;;;;;;;2.72;2.38;;;23.30;62.80;;;;;;4941737;28;20043;-60
2022/05/19 11:26:53;;;;;;;3.35;2.70;;;23.30;62.80;;;;;;4941037;29;20479;-60
2022/05/19 11:29:33;;;;;;;4.50;2.60;;;23.30;62.90;;;;;;4932170;29;20065;-60
2022/05/19 11:32:13;;;;;;;3.58;2.70;;;23.30;62.80;;;;;;4942280;29;20046;-61
2022/05/19 11:35:04;;;;;;;4.85;2.65;;;23.30;62.90;;;;;;4941503;28;20182;-61
2022/05/19 11:37:53;;;;;;;4.10;3.10;;;23.30;63.00;;;;;;4940322;28;20054;-61
2022/05/19 11:40:29;;;;;;;4.85;2.70;;;23.30;62.80;;;;;;4943242;28;20046;-62
2022/05/19 11:43:12;;;;;;;4.70;2.80;;;23.30;62.80;;;;;;4939008;28;20053;-59
2022/05/19 11:46:02;;;;;;;4.65;2.35;;;23.30;62.70;;;;;;4942731;29;20182;-60
2022/05/19 11:55:15;;;;;;;2.75;2.55;;;23.30;62.20;;;;;;4944120;29;20496;-60
2022/05/19 11:57:50;;;;;;;2.75;2.53;;;23.30;62.10;;;;;;4945263;29;20047;-61
2022/05/19 12:00:49;;;;;;;3.63;2.88;;;23.30;62.10;;;;;;4944345;29;20408;-60
2022/05/19 12:03:36;;;;;;;4.13;2.60;;;23.30;61.80;;;;;;4944215;29;20492;-61
2022/05/19 12:06:17;;;;;;;3.92;2.83;;;23.30;61.80;;;;;;4943610;28;20062;-61
2022/05/19 12:09:05;;;;;;;3.00;2.50;;;23.30;61.50;;;;;;4941279;28;20058;-59
2022/05/19 12:11:45;;;;;;;3.10;2.80;;;23.30;61.60;;;;;;4943628;29;20045;-62
2022/05/19 12:14:10;;;;;;;4.43;2.55;;;23.30;62.10;;;;;;4945781;28;20125;-60
2022/05/19 12:16:52;;;;;;;4.88;3.00;;;23.30;61.70;;;;;;4938636;29;20151;-59
2022/05/19 12:19:40;;;;;;;4.60;2.97;;;23.30;61.60;;;;;;4943315;28;20170;-60
2022/05/19 12:22:10;;;;;;;6.88;3.10;;;23.30;61.70;;;;;;4941963;28;20089;-59
2022/05/19 12:24:40;;;;;;;5.47;2.85;;;23.30;61.50;;;;;;4945632;29;20054;-60
2022/05/19 12:27:49;;;;;;;2.88;2.42;;;23.30;61.20;;;;;;4942042;29;20050;-63
2022/05/19 12:33:35;;;;;;;3.03;2.50;;;23.30;60.60;;;;;;4945972;29;20961;-63
2022/05/19 12:36:07;;;;;;;2.95;2.63;;;23.30;60.10;;;;;;4944452;29;20059;-61
2022/05/19 12:38:41;;;;;;;4.05;2.30;;;23.30;60.00;;;;;;4953187;28;20070;-61
2022/05/19 12:41:48;;;;;;;3.15;2.40;;;23.30;60.20;;;;;;4946114;29;20043;-64
2022/05/19 12:44:29;;;;;;;3.83;2.70;;;23.30;60.40;;;;;;4947898;29;20050;-58
2022/05/19 12:47:12;;;;;;;3.90;2.40;;;23.30;60.10;;;;;;4945095;28;20048;-60
2022/05/19 12:49:39;;;;;;;3.05;2.58;;;23.30;60.10;;;;;;4946558;29;20376;-60
2022/05/19 12:52:18;;;;;;;2.65;2.45;;;23.30;60.60;;;;;;4947326;29;20045;-59
2022/05/19 12:55:22;;;;;;;4.28;2.50;;;23.30;60.70;;;;;;4944928;29;20468;-60
2022/05/19 12:57:48;;;;;;;6.05;2.25;;;23.30;60.90;;;;;;4941517;29;20082;-61
2022/05/19 13:00:20;;;;;;;5.07;2.55;;;23.30;61.20;;;;;;4945798;28;20090;-60
2022/05/19 13:02:55;;;;;;;4.80;2.75;;;23.30;61.30;;;;;;4942860;28;20082;-59
2022/05/19 13:05:52;;;;;;;3.15;2.67;;;23.30;61.50;;;;;;4944987;29;20514;-62
2022/05/19 13:08:39;;;;;;;3.85;2.35;;;23.30;61.70;;;;;;4945488;28;20122;-58
2022/05/19 13:11:11;;;;;;;4.15;2.67;;;23.30;61.90;;;;;;4945852;29;20043;-60
2022/05/19 13:13:43;;;;;;;5.25;2.38;;;23.30;62.00;;;;;;4932922;29;20130;-60
2022/05/19 13:16:23;;;;;;;4.15;2.85;;;23.30;62.10;;;;;;4945020;29;20102;-60
2022/05/19 13:19:18;;;;;;;3.20;2.80;;;23.30;62.40;;;;;;4947312;28;20043;-60
2022/05/19 13:21:57;;;;;;;3.45;2.88;;;23.30;62.70;;;;;;4945018;29;20126;-59
2022/05/19 13:24:25;;;;;;;3.72;2.60;;;23.30;62.80;;;;;;4944186;28;20067;-60
2022/05/19 13:32:36;;;;;;;4.60;2.38;;;23.30;63.30;;;;;;4943175;29;20074;-60
2022/05/19 13:35:18;;;;;;;3.25;2.42;;;23.30;63.50;;;;;;4946555;28;20126;-59
2022/05/19 13:37:46;;;;;;;2.92;2.58;;;23.30;63.70;;;;;;4945931;28;20047;-61
2022/05/19 13:40:36;;;;;;;5.20;2.60;;;23.30;63.80;;;;;;4947076;28;20110;-60